Time;durP1;ratioP1;P1;durP2;ratioP2;P2;SDS_P1;SDS_P2;PMS_P1;PMS_P2;Temp;Humidity;BMP_temperature;BMP_pressure;BME280_temperature;BME280_humidity;BME280_pressure;Samples;Min_cycle;Max_cycle;Signal;HPM_P1;HPM_P2
2022/01/31 00:00:12;;;;;;;30.10;17.65;;;;;;;1.80;100.00;99243.98;1699143;84;21099;-65
2022/01/31 00:02:46;;;;;;;29.52;17.55;;;;;;;1.85;100.00;99228.64;1699311;84;21079;-65
2022/01/31 00:05:14;;;;;;;26.73;16.17;;;;;;;1.89;100.00;99214.98;1699339;84;21055;-65
2022/01/31 00:07:43;;;;;;;29.70;16.57;;;;;;;1.90;100.00;99208.58;1698912;84;21552;-66
2022/01/31 00:10:12;;;;;;;28.23;15.75;;;;;;;1.85;100.00;99199.02;1699053;84;21087;-64
2022/01/31 00:12:55;;;;;;;28.57;16.70;;;;;;;1.76;100.00;99211.55;1699203;84;21091;-65
2022/01/31 00:15:17;;;;;;;30.95;17.42;;;;;;;1.70;100.00;99191.39;1698710;84;21659;-65
2022/01/31 00:17:44;;;;;;;30.97;16.90;;;;;;;1.66;100.00;99187.28;1699458;84;21082;-65
2022/01/31 00:20:13;;;;;;;29.20;16.87;;;;;;;1.57;100.00;99187.13;1699028;84;21055;-66
2022/01/31 00:22:42;;;;;;;29.82;16.67;;;;;;;1.57;100.00;99187.13;1699290;84;21020;-65
2022/01/31 00:25:11;;;;;;;27.10;15.98;;;;;;;1.56;100.00;99183.35;1698908;84;21139;-65
2022/01/31 00:27:38;;;;;;;28.40;16.02;;;;;;;1.52;100.00;99187.70;1699286;84;21095;-65
2022/01/31 00:30:08;;;;;;;24.37;14.25;;;;;;;1.55;100.00;99182.53;1699283;84;21555;-65
2022/01/31 00:32:37;;;;;;;24.18;14.35;;;;;;;1.51;100.00;99194.91;1699244;84;21083;-65
2022/01/31 00:35:06;;;;;;;26.33;14.43;;;;;;;1.53;100.00;99193.16;1699232;84;21051;-65
2022/01/31 00:37:36;;;;;;;24.52;14.53;;;;;;;1.51;100.00;99187.74;1698977;84;21051;-65
2022/01/31 00:40:07;;;;;;;24.07;14.20;;;;;;;1.46;100.00;99193.36;1699281;84;21587;-64
2022/01/31 00:42:34;;;;;;;23.70;13.22;;;;;;;1.43;100.00;99193.47;1699306;84;21535;-64
2022/01/31 00:45:20;;;;;;;24.75;14.00;;;;;;;1.44;100.00;99181.17;1699026;84;21099;-65
2022/01/31 00:47:47;;;;;;;30.52;15.83;;;;;;;1.48;100.00;99162.05;1698448;84;21051;-66
2022/01/31 00:50:11;;;;;;;26.40;14.20;;;;;;;1.44;100.00;99183.70;1698862;84;21094;-65
2022/01/31 00:52:41;;;;;;;25.85;14.07;;;;;;;1.28;100.00;99190.89;1699274;84;21138;-65
2022/01/31 00:55:12;;;;;;;24.10;14.03;;;;;;;1.23;100.00;99179.63;1699272;84;21044;-65
2022/01/31 00:57:40;;;;;;;26.17;14.60;;;;;;;1.20;100.00;99184.80;1699226;84;21594;-64
2022/01/31 01:00:09;;;;;;;23.77;14.07;;;;;;;1.22;100.00;99185.58;1699155;84;21079;-65
2022/01/31 01:02:36;;;;;;;24.80;14.25;;;;;;;1.14;100.00;99190.03;1699293;84;21075;-64
2022/01/31 01:05:05;;;;;;;25.65;14.13;;;;;;;1.19;100.00;99188.19;1699274;84;21051;-65
2022/01/31 01:07:33;;;;;;;26.40;13.75;;;;;;;1.20;100.00;99187.33;1699080;84;21689;-64
2022/01/31 01:10:01;;;;;;;25.95;14.68;;;;;;;1.20;100.00;99178.02;1699265;84;21051;-64
2022/01/31 01:12:28;;;;;;;22.35;13.98;;;;;;;1.26;100.00;99174.48;1698955;84;21047;-65
2022/01/31 01:14:55;;;;;;;22.75;13.50;;;;;;;1.26;100.00;99169.83;1699263;84;21079;-65
2022/01/31 01:17:24;;;;;;;23.50;13.40;;;;;;;1.28;100.00;99174.00;1699250;84;21535;-65
2022/01/31 01:19:51;;;;;;;21.62;12.63;;;;;;;1.31;100.00;99181.95;1699157;84;21555;-65
2022/01/31 01:22:18;;;;;;;27.55;14.40;;;;;;;1.30;100.00;99174.80;1699185;84;21583;-66
2022/01/31 01:24:48;;;;;;;23.52;13.53;;;;;;;1.32;100.00;99162.91;1699296;84;21031;-65
2022/01/31 01:27:19;;;;;;;20.85;12.30;;;;;;;1.33;100.00;99166.27;1699248;84;21050;-64
2022/01/31 01:29:46;;;;;;;21.33;13.53;;;;;;;1.31;100.00;99166.74;1667239;84;21039;-65
2022/01/31 01:32:16;;;;;;;23.50;14.10;;;;;;;1.36;100.00;99164.92;1699198;84;21063;-65
2022/01/31 01:34:45;;;;;;;21.90;13.05;;;;;;;1.38;100.00;99155.57;1698941;84;21043;-65
2022/01/31 01:37:12;;;;;;;23.65;13.80;;;;;;;1.40;100.00;99169.86;1699293;84;21019;-65
2022/01/31 01:39:41;;;;;;;22.62;13.48;;;;;;;1.42;100.00;99162.22;1699215;84;21551;-65
2022/01/31 01:42:09;;;;;;;21.27;13.00;;;;;;;1.46;100.00;99148.98;1699284;84;21083;-64
2022/01/31 01:44:51;;;;;;;20.97;13.55;;;;;;;1.40;100.00;99157.18;1698970;84;21146;-65
2022/01/31 01:47:23;;;;;;;24.10;12.75;;;;;;;1.34;100.00;99157.36;1699255;84;21055;-65
2022/01/31 01:49:52;;;;;;;25.08;14.15;;;;;;;1.34;100.00;99142.14;1699232;84;21571;-66
2022/01/31 01:52:21;;;;;;;22.80;13.50;;;;;;;1.29;100.00;99146.50;1699467;84;21078;-65
2022/01/31 01:54:50;;;;;;;29.10;14.90;;;;;;;1.29;100.00;99144.41;1698859;84;21083;-65
2022/01/31 01:57:21;;;;;;;22.17;13.80;;;;;;;1.26;100.00;99144.48;1690744;84;21035;-65
2022/01/31 01:59:54;;;;;;;24.85;13.45;;;;;;;1.22;100.00;99137.42;1699061;84;21079;-65
2022/01/31 02:02:21;;;;;;;26.93;14.17;;;;;;;1.26;100.00;99135.61;1698868;84;21043;-65
2022/01/31 02:04:49;;;;;;;23.50;13.38;;;;;;;1.29;100.00;99131.73;1698913;84;21071;-65
2022/01/31 02:07:20;;;;;;;26.77;14.38;;;;;;;1.28;100.00;99127.52;1687050;84;21004;-65
2022/01/31 02:09:54;;;;;;;23.18;13.08;;;;;;;1.25;100.00;99122.11;1699141;84;21044;-65
2022/01/31 02:12:18;;;;;;;26.10;13.90;;;;;;;1.28;100.00;99124.98;1699141;84;21100;-66
2022/01/31 02:14:46;;;;;;;26.60;13.65;;;;;;;1.19;100.00;99132.42;1698885;84;21078;-66
2022/01/31 02:17:22;;;;;;;26.65;13.88;;;;;;;1.20;100.00;99134.09;1684145;84;21044;-65
2022/01/31 02:19:53;;;;;;;23.25;14.15;;;;;;;1.19;100.00;99133.25;1698761;84;21554;-65
2022/01/31 02:22:23;;;;;;;27.98;15.00;;;;;;;1.16;100.00;99118.58;1698388;84;21019;-65
2022/01/31 02:25:00;;;;;;;25.10;14.15;;;;;;;1.16;100.00;99119.41;1699221;84;20992;-66
2022/01/31 02:27:37;;;;;;;28.87;15.00;;;;;;;1.15;100.00;99118.17;1699163;84;21008;-65
2022/01/31 02:30:12;;;;;;;25.90;14.63;;;;;;;1.11;100.00;99112.80;1699197;84;21071;-65
2022/01/31 02:32:45;;;;;;;23.80;13.78;;;;;;;1.08;100.00;99104.85;1699355;84;21047;-65
2022/01/31 02:35:12;;;;;;;27.75;14.13;;;;;;;1.07;100.00;99109.95;1699356;84;21051;-65
2022/01/31 02:37:40;;;;;;;29.70;15.03;;;;;;;1.03;100.00;99100.78;1699368;84;21071;-65
2022/01/31 02:40:20;;;;;;;28.35;16.02;;;;;;;1.06;100.00;99104.51;1697979;84;21571;-65
2022/01/31 02:42:52;;;;;;;26.12;15.25;;;;;;;1.08;100.00;99109.09;1699321;84;21567;-65
2022/01/31 02:45:20;;;;;;;31.52;15.95;;;;;;;1.08;100.00;99102.31;1699351;84;21071;-65
2022/01/31 02:47:57;;;;;;;22.05;12.75;;;;;;;1.13;100.00;99097.94;1699367;84;21087;-65
2022/01/31 02:50:19;;;;;;;28.38;15.30;;;;;;;1.10;100.00;99106.08;1697902;84;21039;-65
2022/01/31 02:52:50;;;;;;;27.75;14.60;;;;;;;1.11;100.00;99095.88;1699059;84;21059;-65
2022/01/31 02:55:17;;;;;;;27.80;15.20;;;;;;;1.10;100.00;99095.95;1699347;84;21000;-66
2022/01/31 02:57:45;;;;;;;31.90;16.07;;;;;;;1.17;100.00;99081.77;1690934;84;21508;-65
2022/01/31 03:00:16;;;;;;;26.45;14.93;;;;;;;1.18;100.00;99080.09;1699220;84;21516;-65
2022/01/31 03:02:50;;;;;;;29.27;15.85;;;;;;;1.23;100.00;99073.16;1696762;84;21020;-66
2022/01/31 03:05:17;;;;;;;31.33;16.07;;;;;;;1.23;100.00;99064.29;1699584;84;21015;-65
2022/01/31 03:07:44;;;;;;;30.30;16.77;;;;;;;1.27;100.00;99072.20;1699097;84;21107;-65
2022/01/31 03:10:11;;;;;;;27.50;16.42;;;;;;;1.38;100.00;99075.26;1699329;84;21024;-65
2022/01/31 03:12:38;;;;;;;27.37;15.50;;;;;;;1.41;100.00;99076.87;1699221;84;21567;-65
2022/01/31 03:15:07;;;;;;;26.15;14.50;;;;;;;1.38;100.00;99082.87;1699433;84;21035;-65
2022/01/31 03:17:51;;;;;;;28.30;15.53;;;;;;;1.41;100.00;99092.08;1698006;84;21556;-65
2022/01/31 03:20:22;;;;;;;30.00;15.88;;;;;;;1.47;100.00;99085.56;1699227;84;21032;-66
2022/01/31 03:22:49;;;;;;;32.33;16.35;;;;;;;1.45;100.00;99079.70;1699245;84;21041;-65
2022/01/31 03:25:17;;;;;;;30.60;16.57;;;;;;;1.42;100.00;99077.69;1699305;84;21012;-65
2022/01/31 03:27:48;;;;;;;29.67;16.62;;;;;;;1.47;100.00;99073.33;1699110;84;21106;-65
2022/01/31 03:30:19;;;;;;;31.10;16.50;;;;;;;1.48;100.00;99081.31;1699372;84;21027;-65
2022/01/31 03:32:47;;;;;;;28.98;14.28;;;;;;;1.50;100.00;99067.73;1690903;84;21551;-65
2022/01/31 03:35:16;;;;;;;27.67;15.53;;;;;;;1.53;100.00;99070.61;1699014;84;21048;-65
2022/01/31 03:37:44;;;;;;;28.47;15.30;;;;;;;1.53;100.00;99069.34;1699098;84;21063;-65
2022/01/31 03:40:13;;;;;;;31.73;17.40;;;;;;;1.59;100.00;99074.22;1699260;84;21079;-65
2022/01/31 03:42:41;;;;;;;29.50;16.97;;;;;;;1.62;100.00;99072.84;1699325;84;21039;-65
2022/01/31 03:45:10;;;;;;;32.35;16.07;;;;;;;1.64;100.00;99077.43;1699278;84;21036;-65
2022/01/31 03:47:44;;;;;;;30.27;16.20;;;;;;;1.59;100.00;99074.22;1699341;84;21044;-65
2022/01/31 03:50:08;;;;;;;28.38;14.68;;;;;;;1.60;100.00;99087.28;1698947;84;21047;-65
2022/01/31 03:52:37;;;;;;;31.20;16.65;;;;;;;1.60;100.00;99079.67;1699145;84;21071;-65
2022/01/31 03:55:06;;;;;;;34.43;16.45;;;;;;;1.62;100.00;99082.17;1699138;84;21531;-65
2022/01/31 03:57:35;;;;;;;27.98;16.73;;;;;;;1.63;100.00;99077.05;1699380;84;21019;-65
2022/01/31 04:00:22;;;;;;;30.92;16.20;;;;;;;1.64;100.00;99082.50;1699077;84;21115;-66
2022/01/31 04:02:49;;;;;;;31.10;15.98;;;;;;;1.70;100.00;99075.15;1699315;84;21523;-65
2022/01/31 04:05:16;;;;;;;28.20;15.05;;;;;;;1.70;100.00;99075.97;1699063;84;21067;-66
2022/01/31 04:07:43;;;;;;;31.05;15.50;;;;;;;1.70;100.00;99072.17;1699133;84;21032;-65
2022/01/31 04:10:11;;;;;;;29.18;14.28;;;;;;;1.67;100.00;99068.92;1698973;84;21067;-65
2022/01/31 04:12:39;;;;;;;30.65;15.70;;;;;;;1.68;100.00;99061.69;1699249;84;21066;-65
2022/01/31 04:15:07;;;;;;;28.67;14.30;;;;;;;1.76;100.00;99060.59;1699258;84;21547;-65
2022/01/31 04:17:37;;;;;;;25.62;13.93;;;;;;;1.77;100.00;99053.36;1699293;84;21028;-65
2022/01/31 04:20:07;;;;;;;24.63;13.88;;;;;;;1.80;100.00;99057.50;1698884;84;21091;-65
2022/01/31 04:22:39;;;;;;;27.70;14.33;;;;;;;1.79;100.00;99058.39;1699194;84;21054;-65
2022/01/31 04:25:06;;;;;;;26.12;14.20;;;;;;;1.79;100.00;99060.48;1699211;84;21504;-65
2022/01/31 04:27:44;;;;;;;24.50;14.35;;;;;;;1.78;100.00;99051.64;1699286;84;21098;-66
2022/01/31 04:30:06;;;;;;;23.27;12.82;;;;;;;1.82;100.00;99056.19;1698644;84;21047;-66
2022/01/31 04:32:33;;;;;;;23.70;13.10;;;;;;;1.84;100.00;99058.23;1699292;84;21551;-65
2022/01/31 04:35:00;;;;;;;25.90;13.58;;;;;;;1.86;100.00;99054.77;1699638;84;21087;-65
2022/01/31 04:37:27;;;;;;;24.52;13.72;;;;;;;1.84;100.00;99058.23;1698943;84;21103;-65
2022/01/31 04:39:54;;;;;;;25.17;13.83;;;;;;;1.82;100.00;99062.53;1699287;84;21071;-65
2022/01/31 04:42:22;;;;;;;25.50;12.85;;;;;;;1.78;100.00;99063.06;1699265;84;21114;-65
2022/01/31 04:44:49;;;;;;;21.12;13.05;;;;;;;1.73;100.00;99058.58;1699039;84;21044;-65
2022/01/31 04:47:16;;;;;;;21.05;11.95;;;;;;;1.67;100.00;99065.94;1699246;84;21055;-65
2022/01/31 04:49:43;;;;;;;19.95;11.88;;;;;;;1.66;100.00;99060.91;1699289;84;21512;-64
2022/01/31 04:52:10;;;;;;;19.87;11.60;;;;;;;1.73;100.00;99061.13;1699272;84;21051;-65
2022/01/31 04:54:37;;;;;;;24.98;12.03;;;;;;;1.77;100.00;99058.43;1699015;84;21051;-65
2022/01/31 04:57:05;;;;;;;22.42;11.63;;;;;;;1.76;100.00;99058.47;1699264;84;21048;-65
2022/01/31 04:59:33;;;;;;;17.85;10.88;;;;;;;1.76;100.00;99058.47;1699199;84;21102;-65
2022/01/31 05:01:59;;;;;;;19.62;11.63;;;;;;;1.72;100.00;99049.30;1699345;84;21048;-64
2022/01/31 05:04:26;;;;;;;20.17;12.28;;;;;;;1.69;100.00;99044.34;1699407;84;21098;-65
2022/01/31 05:06:53;;;;;;;19.98;12.58;;;;;;;1.63;100.00;99045.34;1698941;84;21023;-65
2022/01/31 05:09:21;;;;;;;16.10;10.95;;;;;;;1.58;100.00;99053.52;1698945;84;21067;-65
2022/01/31 05:11:48;;;;;;;21.15;12.25;;;;;;;1.59;100.00;99048.41;1699104;84;21087;-65
2022/01/31 05:14:16;;;;;;;21.15;12.90;;;;;;;1.62;100.00;99047.48;1699224;84;21572;-65
2022/01/31 05:16:45;;;;;;;19.00;11.35;;;;;;;1.67;100.00;99043.11;1699019;84;21071;-65
2022/01/31 05:19:12;;;;;;;20.75;12.95;;;;;;;1.65;100.00;99052.92;1699560;84;21531;-65
2022/01/31 05:21:38;;;;;;;21.60;12.25;;;;;;;1.66;100.00;99045.23;1699210;84;21111;-65
2022/01/31 05:24:07;;;;;;;19.05;11.60;;;;;;;1.70;100.00;99053.59;1699129;84;21091;-65
2022/01/31 05:26:34;;;;;;;21.77;11.85;;;;;;;1.73;100.00;99049.70;1699150;84;21565;-65
2022/01/31 05:29:01;;;;;;;21.75;11.70;;;;;;;1.80;100.00;99060.03;1699183;84;21055;-65
2022/01/31 05:31:28;;;;;;;19.25;11.38;;;;;;;1.84;100.00;99063.31;1699098;84;21083;-65
2022/01/31 05:33:55;;;;;;;20.60;11.83;;;;;;;1.87;100.00;99061.95;1699212;84;21101;-64
2022/01/31 05:36:23;;;;;;;16.20;10.48;;;;;;;1.97;100.00;99060.78;1699170;84;21052;-65
2022/01/31 05:38:50;;;;;;;19.70;11.90;;;;;;;1.98;100.00;99062.43;1698908;84;21027;-65
2022/01/31 05:41:19;;;;;;;21.02;11.33;;;;;;;2.04;100.00;99071.56;1699193;84;21043;-65
2022/01/31 05:43:47;;;;;;;22.45;12.03;;;;;;;2.03;100.00;99070.73;1698953;84;21138;-65
2022/01/31 05:46:14;;;;;;;17.50;10.00;;;;;;;2.11;100.00;99073.00;1699215;84;21035;-65
2022/01/31 05:48:41;;;;;;;19.07;10.98;;;;;;;2.14;100.00;99084.34;1699251;84;21055;-65
2022/01/31 05:51:17;;;;;;;18.75;10.63;;;;;;;2.15;100.00;99085.98;1699200;84;21052;-65
2022/01/31 05:53:47;;;;;;;15.85;10.15;;;;;;;2.14;100.00;99091.51;1699189;84;21048;-65
2022/01/31 05:56:18;;;;;;;15.90;10.58;;;;;;;2.24;100.00;99084.43;1699104;84;21064;-65
2022/01/31 05:58:46;;;;;;;18.70;10.72;;;;;;;2.31;100.00;99090.12;1699233;84;21579;-65
2022/01/31 06:01:13;;;;;;;17.60;9.90;;;;;;;2.35;100.00;99086.60;1699102;84;21075;-65
2022/01/31 06:03:40;;;;;;;15.78;10.30;;;;;;;2.43;100.00;99094.80;1699171;84;21019;-65
2022/01/31 06:06:07;;;;;;;18.65;10.25;;;;;;;2.39;100.00;99094.09;1698919;84;21048;-66
2022/01/31 06:08:36;;;;;;;16.27;9.60;;;;;;;2.34;100.00;99098.92;1699014;84;21056;-66
2022/01/31 06:11:04;;;;;;;15.13;10.13;;;;;;;2.31;100.00;99102.82;1699123;84;21060;-66
2022/01/31 06:13:33;;;;;;;17.25;9.58;;;;;;;2.34;100.00;99104.83;1699194;84;21088;-66
2022/01/31 06:16:00;;;;;;;17.48;9.78;;;;;;;2.38;100.00;99106.39;1699059;84;21047;-65
2022/01/31 06:18:27;;;;;;;15.63;10.25;;;;;;;2.34;100.00;99106.55;1699260;84;21103;-65
2022/01/31 06:20:55;;;;;;;16.77;10.40;;;;;;;2.48;100.00;99106.91;1699133;84;21052;-65
2022/01/31 06:23:24;;;;;;;15.13;9.63;;;;;;;2.47;100.00;99110.77;1699130;84;21048;-66
2022/01/31 06:25:51;;;;;;;14.53;9.03;;;;;;;2.50;100.00;99099.25;1699142;84;21091;-65
2022/01/31 06:28:18;;;;;;;13.83;8.35;;;;;;;2.53;100.00;99111.83;1699366;84;21516;-65
2022/01/31 06:30:45;;;;;;;15.83;9.13;;;;;;;2.53;100.00;99111.83;1699465;84;21066;-65
2022/01/31 06:33:16;;;;;;;16.60;9.98;;;;;;;2.52;100.00;99108.47;1699055;84;21079;-65
2022/01/31 06:35:42;;;;;;;14.85;9.50;;;;;;;2.50;100.00;99115.31;1699510;84;21507;-65
2022/01/31 06:38:09;;;;;;;18.75;9.78;;;;;;;2.55;100.00;99117.69;1699315;84;21582;-65
2022/01/31 06:40:36;;;;;;;15.58;9.60;;;;;;;2.52;100.00;99113.55;1699172;84;21067;-66
2022/01/31 06:43:03;;;;;;;15.00;8.68;;;;;;;2.53;100.00;99112.66;1699438;84;21036;-65
2022/01/31 06:45:32;;;;;;;12.82;7.95;;;;;;;2.52;100.00;99100.85;1699382;84;21055;-65
2022/01/31 06:47:59;;;;;;;13.62;8.25;;;;;;;2.67;100.00;99103.75;1698598;84;21055;-66
2022/01/31 06:50:26;;;;;;;14.47;8.30;;;;;;;2.67;100.00;99103.75;1676428;85;21009;-66
2022/01/31 06:52:55;;;;;;;14.38;8.65;;;;;;;2.71;100.00;99109.94;1671248;85;21004;-66
2022/01/31 06:55:23;;;;;;;14.33;8.40;;;;;;;2.72;100.00;99105.70;1652882;85;21016;-66
2022/01/31 06:57:51;;;;;;;11.88;8.00;;;;;;;2.83;100.00;99095.98;1659074;84;21063;-65
2022/01/31 07:00:20;;;;;;;13.65;7.90;;;;;;;2.83;100.00;99096.43;1646332;84;21067;-66
2022/01/31 07:02:51;;;;;;;13.40;7.90;;;;;;;2.89;100.00;99101.30;1652113;84;21019;-66
2022/01/31 07:05:19;;;;;;;13.60;7.75;;;;;;;2.89;100.00;99101.30;1667343;85;21074;-66
2022/01/31 07:07:48;;;;;;;14.28;8.03;;;;;;;2.88;100.00;99096.66;1634238;88;21089;-67
2022/01/31 07:10:15;;;;;;;12.30;8.00;;;;;;;2.79;100.00;99096.97;1634322;88;21102;-66
2022/01/31 07:12:48;;;;;;;13.83;8.05;;;;;;;2.78;100.00;99108.03;1634202;88;21026;-65
2022/01/31 07:15:12;;;;;;;12.10;8.13;;;;;;;2.78;100.00;99113.11;1634109;87;21066;-66
2022/01/31 07:17:44;;;;;;;14.60;8.05;;;;;;;2.78;100.00;99113.11;1634224;88;21058;-66
2022/01/31 07:20:21;;;;;;;12.45;7.65;;;;;;;2.79;100.00;99110.50;1634204;87;21042;-66
2022/01/31 07:22:49;;;;;;;11.93;7.20;;;;;;;2.92;100.00;99099.90;1634476;88;21064;-66
2022/01/31 07:25:21;;;;;;;13.10;8.05;;;;;;;3.07;100.00;99110.81;1634442;86;21073;-67
2022/01/31 07:27:41;;;;;;;13.30;8.15;;;;;;;3.14;100.00;99105.05;1688731;84;21028;-66
2022/01/31 07:30:09;;;;;;;12.05;7.55;;;;;;;3.23;100.00;99108.55;1692159;84;21051;-65
2022/01/31 07:32:41;;;;;;;13.72;7.55;;;;;;;3.41;100.00;99119.77;1691979;84;21584;-65
2022/01/31 07:35:06;;;;;;;12.15;7.92;;;;;;;3.41;100.00;99119.77;1692110;84;21525;-66
2022/01/31 07:37:35;;;;;;;13.03;7.83;;;;;;;3.50;100.00;99121.12;1687900;85;21575;-67
2022/01/31 07:40:04;;;;;;;14.55;8.40;;;;;;;3.50;100.00;99121.12;1668897;85;21514;-67
2022/01/31 07:42:32;;;;;;;14.05;7.72;;;;;;;3.53;100.00;99127.39;1707402;83;21516;-67
2022/01/31 07:45:00;;;;;;;12.63;8.03;;;;;;;3.45;100.00;99129.36;1692094;83;21594;-67
2022/01/31 07:47:29;;;;;;;12.93;7.70;;;;;;;3.40;100.00;99130.80;1664271;85;21096;-67
2022/01/31 07:49:58;;;;;;;15.65;7.70;;;;;;;3.27;100.00;99126.63;1664131;85;21203;-67
2022/01/31 07:52:25;;;;;;;13.25;7.80;;;;;;;3.24;100.00;99131.80;1661839;85;21080;-64
2022/01/31 07:54:53;;;;;;;11.70;6.45;;;;;;;3.35;100.00;99129.71;1663943;86;21558;-65
2022/01/31 07:57:24;;;;;;;11.63;7.30;;;;;;;3.41;100.00;99132.03;1664623;84;21161;-64
2022/01/31 07:59:51;;;;;;;10.82;6.47;;;;;;;3.51;100.00;99131.70;1700025;83;21055;-64
2022/01/31 08:02:18;;;;;;;10.85;7.08;;;;;;;3.68;100.00;99134.88;1677364;84;21107;-67
2022/01/31 08:04:45;;;;;;;10.00;6.28;;;;;;;3.69;100.00;99139.92;1635950;85;21146;-65
2022/01/31 08:07:12;;;;;;;10.13;6.03;;;;;;;3.75;100.00;99133.74;1662587;84;21096;-65
2022/01/31 08:09:40;;;;;;;10.65;5.92;;;;;;;3.88;100.00;99130.30;1660185;86;21037;-64
2022/01/31 08:12:09;;;;;;;10.68;6.40;;;;;;;3.90;100.00;99139.98;1705939;83;21020;-65
2022/01/31 08:14:36;;;;;;;10.65;6.47;;;;;;;3.99;100.00;99139.19;1703500;83;21039;-65
2022/01/31 08:17:04;;;;;;;8.25;5.67;;;;;;;3.88;100.00;99134.94;1704057;83;21087;-65
2022/01/31 08:19:33;;;;;;;12.03;6.47;;;;;;;3.81;100.00;99138.59;1702687;83;21570;-64
2022/01/31 08:22:03;;;;;;;11.57;6.42;;;;;;;3.69;100.00;99137.80;1713991;83;21004;-65
2022/01/31 08:24:33;;;;;;;11.60;6.58;;;;;;;3.54;100.00;99140.03;1701260;83;21055;-65
2022/01/31 08:27:01;;;;;;;8.83;5.90;;;;;;;3.51;100.00;99137.61;1702211;83;21052;-65
2022/01/31 08:29:32;;;;;;;10.32;5.95;;;;;;;3.46;100.00;99146.30;1707932;83;21047;-65
2022/01/31 08:31:59;;;;;;;10.03;6.15;;;;;;;3.44;100.00;99137.89;1698543;83;21090;-64
2022/01/31 08:37:14;;;;;;;9.75;5.60;;;;;;;3.51;100.00;99130.43;1705567;83;21032;-64
2022/01/31 08:39:42;;;;;;;9.80;5.60;;;;;;;3.64;100.00;99130.79;1705259;83;21524;-65
2022/01/31 08:42:10;;;;;;;9.10;6.10;;;;;;;3.81;100.00;99127.14;1702891;83;21088;-65
2022/01/31 08:44:38;;;;;;;10.20;5.45;;;;;;;4.00;100.00;99128.55;1701919;83;21072;-64
2022/01/31 08:47:06;;;;;;;8.78;5.33;;;;;;;4.05;100.00;99123.27;1703320;83;21098;-64
2022/01/31 08:49:36;;;;;;;8.65;5.25;;;;;;;4.06;100.00;99127.48;1696857;83;21137;-64
2022/01/31 08:52:04;;;;;;;8.23;5.65;;;;;;;4.16;100.00;99128.77;1702405;83;21528;-64
2022/01/31 08:54:34;;;;;;;8.55;5.47;;;;;;;4.12;100.00;99124.70;1699131;83;21869;-65
2022/01/31 08:57:02;;;;;;;8.20;5.25;;;;;;;4.13;100.00;99128.88;1708545;83;21066;-65
2022/01/31 08:59:29;;;;;;;8.68;5.55;;;;;;;4.28;100.00;99132.52;1705599;83;21529;-65
2022/01/31 09:02:06;;;;;;;7.53;5.25;;;;;;;4.27;100.00;99132.97;1702668;83;21114;-64
2022/01/31 09:04:35;;;;;;;7.95;4.85;;;;;;;4.39;100.00;99137.57;1698913;83;21043;-64
2022/01/31 09:07:03;;;;;;;7.15;4.85;;;;;;;4.35;100.00;99137.31;1701202;83;21537;-64
2022/01/31 09:09:30;;;;;;;6.80;4.47;;;;;;;4.41;100.00;99129.88;1707711;83;21037;-64
2022/01/31 09:11:59;;;;;;;7.12;4.53;;;;;;;4.40;100.00;99137.16;1694924;82;21170;-64
2022/01/31 09:14:26;;;;;;;9.88;5.37;;;;;;;4.49;100.00;99128.30;1712735;83;21075;-64
2022/01/31 09:16:54;;;;;;;6.58;4.45;;;;;;;4.37;100.00;99131.71;1698289;84;21062;-64
2022/01/31 09:19:22;;;;;;;5.90;3.98;;;;;;;4.34;100.00;99125.91;1703503;83;20997;-64
2022/01/31 09:21:49;;;;;;;5.03;3.62;;;;;;;4.39;100.00;99130.38;1703560;83;21009;-66
2022/01/31 09:24:16;;;;;;;5.30;3.80;;;;;;;4.27;100.00;99127.88;1662795;84;21101;-65
2022/01/31 09:26:43;;;;;;;6.35;3.45;;;;;;;4.34;100.00;99127.17;1706913;84;21067;-65
2022/01/31 09:29:12;;;;;;;6.08;3.62;;;;;;;4.40;100.00;99122.69;1709076;84;21074;-65
2022/01/31 09:31:39;;;;;;;4.72;3.75;;;;;;;4.36;100.00;99127.52;1704051;84;21484;-65
2022/01/31 09:34:06;;;;;;;6.03;3.95;;;;;;;4.37;100.00;99129.62;1699781;84;21087;-65
2022/01/31 09:36:35;;;;;;;9.48;5.50;;;;;;;4.37;100.00;99138.08;1654774;85;21560;-64
2022/01/31 09:39:04;;;;;;;10.88;4.95;;;;;;;4.39;100.00;99138.03;1653763;86;21075;-65
2022/01/31 09:41:34;;;;;;;10.60;5.05;;;;;;;4.48;100.00;99131.30;1705763;83;21035;-65
2022/01/31 09:44:15;;;;;;;7.62;5.10;;;;;;;4.45;100.00;99130.13;1653696;86;21564;-65
2022/01/31 09:47:04;;;;;;;10.45;6.20;;;;;;;4.40;100.00;99132.05;1697261;84;21048;-65
2022/01/31 09:49:19;;;;;;;10.63;5.95;;;;;;;4.59;100.00;99135.48;1696957;84;21505;-65
2022/01/31 09:51:47;;;;;;;9.20;5.28;;;;;;;4.64;100.00;99136.56;1708232;83;21026;-65
2022/01/31 09:54:14;;;;;;;9.18;5.42;;;;;;;4.63;100.00;99134.09;1707262;83;21035;-65
2022/01/31 09:56:46;;;;;;;8.00;5.40;;;;;;;4.70;100.00;99132.47;1705401;83;21080;-65
2022/01/31 09:59:16;;;;;;;7.45;4.72;;;;;;;4.79;100.00;99132.10;1658003;86;21054;-65
2022/01/31 10:01:47;;;;;;;8.95;4.72;;;;;;;4.83;100.00;99130.26;1699784;84;21103;-65
2022/01/31 10:04:18;;;;;;;6.58;5.08;;;;;;;4.98;100.00;99130.03;1700992;84;21039;-65
2022/01/31 10:06:50;;;;;;;7.85;5.08;;;;;;;5.21;100.00;99130.30;1705000;84;21070;-66
2022/01/31 10:09:21;;;;;;;9.15;5.25;;;;;;;5.27;100.00;99136.86;1708564;84;21023;-65
2022/01/31 10:11:53;;;;;;;7.00;4.83;;;;;;;5.35;100.00;99142.45;1701768;84;21529;-65
2022/01/31 10:17:31;;;;;;;6.25;4.10;;;;;;;4.99;100.00;99129.98;1675994;84;21106;-64
2022/01/31 10:20:26;;;;;;;7.83;4.85;;;;;;;4.77;100.00;99133.89;1706964;84;21060;-66
2022/01/31 10:22:53;;;;;;;10.98;4.87;;;;;;;4.67;100.00;99126.70;1700380;84;21108;-66
2022/01/31 10:25:24;;;;;;;8.25;4.40;;;;;;;4.91;100.00;99134.58;1708425;82;21515;-66
2022/01/31 10:27:53;;;;;;;5.83;4.20;;;;;;;5.02;100.00;99127.28;1699393;84;22289;-66
2022/01/31 10:30:26;;;;;;;6.20;4.12;;;;;;;5.20;100.00;99127.38;1701269;82;21005;-67
2022/01/31 10:32:55;;;;;;;7.65;4.40;;;;;;;5.29;100.00;99131.23;1686682;83;21037;-66
2022/01/31 10:35:31;;;;;;;6.85;4.05;;;;;;;5.56;100.00;99130.01;1676633;85;21599;-67
2022/01/31 10:38:04;;;;;;;9.63;5.00;;;;;;;5.52;100.00;99124.66;1649365;85;21505;-65
2022/01/31 10:54:05;;;;;;;7.10;4.67;;;;;;;5.40;100.00;99136.70;1654974;85;21059;-66
2022/01/31 10:56:48;;;;;;;8.48;4.60;;;;;;;5.38;100.00;99141.87;1655488;86;21098;-67
2022/01/31 10:59:26;;;;;;;5.95;3.92;;;;;;;5.23;100.00;99132.33;1648201;86;21030;-66
2022/01/31 11:01:57;;;;;;;9.48;4.03;;;;;;;5.31;100.00;99132.00;1690288;83;21078;-66
2022/01/31 11:04:24;;;;;;;8.40;4.65;;;;;;;5.44;100.00;99131.02;1670771;84;21022;-66
2022/01/31 11:07:02;;;;;;;6.35;3.65;;;;;;;5.54;100.00;99125.88;1680902;84;21136;-66
2022/01/31 11:09:31;;;;;;;7.33;3.70;;;;;;;5.73;100.00;99126.67;1656349;85;21104;-66
2022/01/31 11:11:59;;;;;;;4.05;3.10;;;;;;;5.82;100.00;99130.55;1647670;86;21497;-65
2022/01/31 11:14:27;;;;;;;6.55;3.22;;;;;;;5.89;100.00;99131.08;1670762;85;21528;-66
2022/01/31 11:16:55;;;;;;;5.05;3.45;;;;;;;6.03;100.00;99133.02;1662607;85;21103;-66
2022/01/31 11:19:31;;;;;;;6.35;3.65;;;;;;;5.98;100.00;99139.17;1640955;86;21112;-66
2022/01/31 11:22:01;;;;;;;7.03;4.30;;;;;;;5.75;100.00;99131.71;1635789;86;21604;-65
2022/01/31 11:24:33;;;;;;;6.35;4.28;;;;;;;5.75;100.00;99131.71;1642458;86;21060;-66
2022/01/31 11:27:10;;;;;;;5.92;4.28;;;;;;;5.82;100.00;99131.82;1639977;85;21084;-66
2022/01/31 11:29:44;;;;;;;10.88;6.20;;;;;;;5.73;100.00;99129.68;1647175;86;21062;-65
2022/01/31 11:32:12;;;;;;;12.15;6.72;;;;;;;5.67;100.00;99134.61;1651813;86;21068;-66
2022/01/31 11:34:43;;;;;;;10.15;6.20;;;;;;;5.73;100.00;99133.05;1637995;85;21063;-66
2022/01/31 11:37:14;;;;;;;10.45;5.45;;;;;;;5.66;100.00;99136.80;1663932;85;21612;-66
2022/01/31 11:39:45;;;;;;;13.53;6.58;;;;;;;5.56;100.00;99142.77;1608338;88;21061;-66
2022/01/31 11:42:13;;;;;;;10.82;6.25;;;;;;;5.59;100.00;99141.80;1642790;86;21064;-66
2022/01/31 11:45:01;;;;;;;16.70;8.25;;;;;;;5.69;100.00;99148.13;1616414;87;21134;-66
2022/01/31 11:47:32;;;;;;;11.28;6.45;;;;;;;5.59;100.00;99145.63;1621917;87;21556;-66
2022/01/31 11:50:09;;;;;;;12.47;7.15;;;;;;;5.47;100.00;99158.94;1651510;86;22584;-66